| Date | Time | Temp. (oF) | Dew Point (oF) | Rel. Hum. (%) | Press. (in.) | Wind Dir. | Wind Speed (mph) | Hourly Rainfall (in.) |
|
|---|---|---|---|---|---|---|---|---|---|
| 1 | 07/15 | 00:00 | 76 | 76 | 100 | 30.00 | ENE | 1 | 0.00 |
| 2 | 07/14 | 23:00 | 76 | 76 | 100 | 30.01 | S | 3 | 0.00 |
| 3 | 07/14 | 22:00 | 77 | 76 | 97 | 30.00 | ENE | 0 | 0.00 |
| 4 | 07/14 | 21:00 | 78 | 75 | 93 | 29.97 | E | 2 | 0.00 |
| 5 | 07/14 | 20:00 | 79 | 76 | 91 | 29.95 | E | 1 | 0.00 |
| 6 | 07/14 | 19:00 | 79 | 75 | 90 | 29.94 | SSE | 2 | 0.00 |
| 7 | 07/14 | 18:00 | 77 | 75 | 94 | 29.95 | ESE | 1 | 0.00 |
| 8 | 07/14 | 17:00 | 80 | 76 | 88 | 29.95 | E | 8 | 0.00 |
| 9 | 07/14 | 16:00 | 82 | 75 | 81 | 29.96 | SE | 2 | 0.00 |
| 10 | 07/14 | 15:00 | 83 | 76 | 81 | 29.97 | ESE | 4 | 0.00 |
| 11 | 07/14 | 14:00 | 82 | 75 | 81 | 29.98 | SE | 2 | 0.00 |
| 12 | 07/14 | 13:00 | 82 | 75 | 80 | 29.98 | SSE | 2 | 0.00 |
| 13 | 07/14 | 12:00 | 81 | 74 | 82 | 29.99 | SE | 4 | 0.00 |
| 14 | 07/14 | 11:00 | 79 | 74 | 86 | 30.00 | ESE | 8 | 0.00 |
| 15 | 07/14 | 10:00 | 80 | 73 | 82 | 30.00 | S | 4 | 0.00 |
| 16 | 07/14 | 09:00 | 77 | 76 | 97 | 30.01 | E | 7 | 0.00 |
| 17 | 07/14 | 08:00 | 75 | 75 | 100 | 30.01 | SSE | 4 | 0.00 |
| 18 | 07/14 | 07:00 | 74 | 73 | 100 | 30.00 | ESE | 6 | 0.00 |
| 19 | 07/14 | 06:00 | 75 | 75 | 100 | 29.98 | SSE | 4 | 0.00 |
| 20 | 07/14 | 05:00 | 75 | 75 | 100 | 29.97 | E | 1 | 0.00 |
| 21 | 07/14 | 04:00 | 75 | 75 | 100 | 29.96 | NE | 4 | 0.00 |
| 22 | 07/14 | 03:00 | 75 | 75 | 100 | 29.97 | ESE | 2 | 0.00 |
| 23 | 07/14 | 02:00 | 74 | 73 | 99 | 29.98 | E | 1 | 0.00 |
| 24 | 07/14 | 01:00 | 75 | 74 | 98 | 29.98 | E | 1 | 0.00 |